sensor_id;sensor_type;location;lat;lon;timestamp;temperature;humidity
22145;DHT22;11238;48.730;11.566;2022-11-14T00:00:28;3.10;99.90
22145;DHT22;11238;48.730;11.566;2022-11-14T00:03:12;3.10;99.90
22145;DHT22;11238;48.730;11.566;2022-11-14T00:05:57;3.00;99.90
22145;DHT22;11238;48.730;11.566;2022-11-14T00:08:42;3.10;99.90
22145;DHT22;11238;48.730;11.566;2022-11-14T00:11:26;3.10;99.90
22145;DHT22;11238;48.730;11.566;2022-11-14T00:14:10;3.10;99.90
22145;DHT22;11238;48.730;11.566;2022-11-14T00:16:55;3.10;99.90
22145;DHT22;11238;48.730;11.566;2022-11-14T00:19:39;2.90;99.90
22145;DHT22;11238;48.730;11.566;2022-11-14T00:22:24;3.00;99.90
22145;DHT22;11238;48.730;11.566;2022-11-14T00:25:09;3.10;99.90
22145;DHT22;11238;48.730;11.566;2022-11-14T00:27:56;3.20;99.90
22145;DHT22;11238;48.730;11.566;2022-11-14T00:30:46;3.30;99.90
22145;DHT22;11238;48.730;11.566;2022-11-14T00:33:31;3.30;99.90
22145;DHT22;11238;48.730;11.566;2022-11-14T00:36:16;3.30;99.90
22145;DHT22;11238;48.730;11.566;2022-11-14T00:39:00;3.30;99.90
22145;DHT22;11238;48.730;11.566;2022-11-14T00:41:44;3.20;99.90
22145;DHT22;11238;48.730;11.566;2022-11-14T00:44:29;3.20;99.90
22145;DHT22;11238;48.730;11.566;2022-11-14T00:47:13;3.10;99.90
22145;DHT22;11238;48.730;11.566;2022-11-14T00:49:58;3.10;99.90
22145;DHT22;11238;48.730;11.566;2022-11-14T00:52:42;3.10;99.90
22145;DHT22;11238;48.730;11.566;2022-11-14T00:55:27;3.20;99.90
22145;DHT22;11238;48.730;11.566;2022-11-14T00:58:11;3.10;99.90
22145;DHT22;11238;48.730;11.566;2022-11-14T01:00:56;3.10;99.90
22145;DHT22;11238;48.730;11.566;2022-11-14T01:03:40;3.10;99.90
22145;DHT22;11238;48.730;11.566;2022-11-14T01:06:25;3.00;99.90
22145;DHT22;11238;48.730;11.566;2022-11-14T01:09:10;3.00;99.90
22145;DHT22;11238;48.730;11.566;2022-11-14T01:11:55;3.10;99.90
22145;DHT22;11238;48.730;11.566;2022-11-14T01:14:40;3.20;99.90
22145;DHT22;11238;48.730;11.566;2022-11-14T01:17:24;3.10;99.90
22145;DHT22;11238;48.730;11.566;2022-11-14T01:20:12;3.00;99.90
22145;DHT22;11238;48.730;11.566;2022-11-14T01:22:56;3.10;99.90
22145;DHT22;11238;48.730;11.566;2022-11-14T01:25:42;3.00;99.90
22145;DHT22;11238;48.730;11.566;2022-11-14T01:28:27;2.90;99.90
22145;DHT22;11238;48.730;11.566;2022-11-14T01:31:18;3.10;99.90
22145;DHT22;11238;48.730;11.566;2022-11-14T01:34:03;3.00;99.90
22145;DHT22;11238;48.730;11.566;2022-11-14T01:36:47;2.90;99.90
22145;DHT22;11238;48.730;11.566;2022-11-14T01:39:32;3.00;99.90
22145;DHT22;11238;48.730;11.566;2022-11-14T01:42:17;2.90;99.90
22145;DHT22;11238;48.730;11.566;2022-11-14T01:51:28;3.00;99.90
22145;DHT22;11238;48.730;11.566;2022-11-14T01:54:25;3.00;99.90
22145;DHT22;11238;48.730;11.566;2022-11-14T01:57:13;3.10;99.90
22145;DHT22;11238;48.730;11.566;2022-11-14T02:00:03;3.20;99.90
22145;DHT22;11238;48.730;11.566;2022-11-14T02:02:47;3.20;99.90
22145;DHT22;11238;48.730;11.566;2022-11-14T02:05:32;3.20;99.90
22145;DHT22;11238;48.730;11.566;2022-11-14T02:08:18;3.10;99.90
22145;DHT22;11238;48.730;11.566;2022-11-14T02:11:04;2.90;99.90
22145;DHT22;11238;48.730;11.566;2022-11-14T02:13:48;2.90;99.90
22145;DHT22;11238;48.730;11.566;2022-11-14T02:16:33;2.90;99.90
22145;DHT22;11238;48.730;11.566;2022-11-14T02:19:18;2.90;99.90
22145;DHT22;11238;48.730;11.566;2022-11-14T02:22:02;2.90;99.90
22145;DHT22;11238;48.730;11.566;2022-11-14T02:24:46;3.00;99.90
22145;DHT22;11238;48.730;11.566;2022-11-14T02:27:32;3.00;99.90
22145;DHT22;11238;48.730;11.566;2022-11-14T02:30:20;3.00;99.90
22145;DHT22;11238;48.730;11.566;2022-11-14T02:33:05;3.00;99.90
22145;DHT22;11238;48.730;11.566;2022-11-14T02:35:49;3.00;99.90
22145;DHT22;11238;48.730;11.566;2022-11-14T02:38:34;3.00;99.90
22145;DHT22;11238;48.730;11.566;2022-11-14T02:41:18;3.00;99.90
22145;DHT22;11238;48.730;11.566;2022-11-14T02:44:03;3.00;99.90
22145;DHT22;11238;48.730;11.566;2022-11-14T02:46:49;3.10;99.90
22145;DHT22;11238;48.730;11.566;2022-11-14T02:49:33;3.00;99.90
22145;DHT22;11238;48.730;11.566;2022-11-14T02:52:18;3.10;99.90
22145;DHT22;11238;48.730;11.566;2022-11-14T02:55:04;3.20;99.90
22145;DHT22;11238;48.730;11.566;2022-11-14T02:57:48;3.30;99.90
22145;DHT22;11238;48.730;11.566;2022-11-14T03:00:33;3.30;99.90
22145;DHT22;11238;48.730;11.566;2022-11-14T03:03:18;3.30;99.90
22145;DHT22;11238;48.730;11.566;2022-11-14T03:06:03;3.30;99.90
22145;DHT22;11238;48.730;11.566;2022-11-14T03:08:48;3.40;99.90
22145;DHT22;11238;48.730;11.566;2022-11-14T03:11:33;3.50;99.90
22145;DHT22;11238;48.730;11.566;2022-11-14T03:14:17;3.50;99.90
22145;DHT22;11238;48.730;11.566;2022-11-14T03:17:02;3.50;99.90
22145;DHT22;11238;48.730;11.566;2022-11-14T03:19:46;3.60;99.90
22145;DHT22;11238;48.730;11.566;2022-11-14T03:22:31;3.60;99.90
22145;DHT22;11238;48.730;11.566;2022-11-14T03:25:16;3.70;99.90
22145;DHT22;11238;48.730;11.566;2022-11-14T03:28:00;3.70;99.90
22145;DHT22;11238;48.730;11.566;2022-11-14T03:30:45;3.70;99.90
22145;DHT22;11238;48.730;11.566;2022-11-14T03:33:29;3.70;99.90
22145;DHT22;11238;48.730;11.566;2022-11-14T03:36:13;3.70;99.90
22145;DHT22;11238;48.730;11.566;2022-11-14T03:38:58;3.70;99.90
22145;DHT22;11238;48.730;11.566;2022-11-14T03:41:43;3.80;99.90
22145;DHT22;11238;48.730;11.566;2022-11-14T03:44:28;3.70;99.90
22145;DHT22;11238;48.730;11.566;2022-11-14T03:47:12;3.80;99.90
22145;DHT22;11238;48.730;11.566;2022-11-14T03:49:56;3.80;99.90
22145;DHT22;11238;48.730;11.566;2022-11-14T03:52:40;3.90;99.90
22145;DHT22;11238;48.730;11.566;2022-11-14T03:55:25;3.90;99.90
22145;DHT22;11238;48.730;11.566;2022-11-14T03:58:09;3.90;99.90
22145;DHT22;11238;48.730;11.566;2022-11-14T04:00:54;3.90;99.90
22145;DHT22;11238;48.730;11.566;2022-11-14T04:03:38;4.00;99.90
22145;DHT22;11238;48.730;11.566;2022-11-14T04:06:23;4.00;99.90
22145;DHT22;11238;48.730;11.566;2022-11-14T04:09:09;4.10;99.90
22145;DHT22;11238;48.730;11.566;2022-11-14T04:11:54;4.10;99.90
22145;DHT22;11238;48.730;11.566;2022-11-14T04:14:38;4.10;99.90
22145;DHT22;11238;48.730;11.566;2022-11-14T04:17:22;4.10;99.90
22145;DHT22;11238;48.730;11.566;2022-11-14T04:20:07;4.10;99.90
22145;DHT22;11238;48.730;11.566;2022-11-14T04:22:51;4.10;99.90
22145;DHT22;11238;48.730;11.566;2022-11-14T04:25:36;4.20;99.90
22145;DHT22;11238;48.730;11.566;2022-11-14T04:28:20;4.20;99.90
22145;DHT22;11238;48.730;11.566;2022-11-14T04:31:05;4.20;99.90
22145;DHT22;11238;48.730;11.566;2022-11-14T04:33:49;4.20;99.90
22145;DHT22;11238;48.730;11.566;2022-11-14T04:36:34;4.20;99.90
22145;DHT22;11238;48.730;11.566;2022-11-14T04:39:18;4.20;99.90
22145;DHT22;11238;48.730;11.566;2022-11-14T04:42:03;4.20;99.90
22145;DHT22;11238;48.730;11.566;2022-11-14T04:44:47;4.20;99.90
22145;DHT22;11238;48.730;11.566;2022-11-14T04:47:31;4.20;99.90
22145;DHT22;11238;48.730;11.566;2022-11-14T04:50:16;4.20;99.90
22145;DHT22;11238;48.730;11.566;2022-11-14T04:53:00;4.10;99.90
22145;DHT22;11238;48.730;11.566;2022-11-14T04:55:44;4.10;99.90
22145;DHT22;11238;48.730;11.566;2022-11-14T04:58:29;4.10;99.90
22145;DHT22;11238;48.730;11.566;2022-11-14T05:01:15;4.10;99.90
22145;DHT22;11238;48.730;11.566;2022-11-14T05:04:00;4.10;99.90
22145;DHT22;11238;48.730;11.566;2022-11-14T05:06:44;4.20;99.90
22145;DHT22;11238;48.730;11.566;2022-11-14T05:09:28;4.20;99.90
22145;DHT22;11238;48.730;11.566;2022-11-14T05:12:12;4.20;99.90
22145;DHT22;11238;48.730;11.566;2022-11-14T05:14:57;4.20;99.90
22145;DHT22;11238;48.730;11.566;2022-11-14T05:17:42;4.20;99.90
22145;DHT22;11238;48.730;11.566;2022-11-14T05:20:26;4.20;99.90
22145;DHT22;11238;48.730;11.566;2022-11-14T05:23:18;4.20;99.90
22145;DHT22;11238;48.730;11.566;2022-11-14T05:26:09;4.20;99.90
22145;DHT22;11238;48.730;11.566;2022-11-14T05:28:54;4.30;99.90
22145;DHT22;11238;48.730;11.566;2022-11-14T05:31:39;4.10;99.90
22145;DHT22;11238;48.730;11.566;2022-11-14T05:34:23;4.20;99.90
22145;DHT22;11238;48.730;11.566;2022-11-14T05:37:08;4.20;99.90
22145;DHT22;11238;48.730;11.566;2022-11-14T05:39:53;4.20;99.90
22145;DHT22;11238;48.730;11.566;2022-11-14T05:42:37;4.30;99.90
22145;DHT22;11238;48.730;11.566;2022-11-14T05:45:21;4.30;99.90
22145;DHT22;11238;48.730;11.566;2022-11-14T05:48:06;4.30;99.90
22145;DHT22;11238;48.730;11.566;2022-11-14T05:50:56;4.20;99.90
22145;DHT22;11238;48.730;11.566;2022-11-14T05:53:41;4.20;99.90
22145;DHT22;11238;48.730;11.566;2022-11-14T05:56:26;4.20;99.90
22145;DHT22;11238;48.730;11.566;2022-11-14T05:59:11;3.90;99.90
22145;DHT22;11238;48.730;11.566;2022-11-14T06:01:55;3.80;99.90
22145;DHT22;11238;48.730;11.566;2022-11-14T06:04:40;3.90;99.90
22145;DHT22;11238;48.730;11.566;2022-11-14T06:07:24;3.90;99.90
22145;DHT22;11238;48.730;11.566;2022-11-14T06:10:08;3.80;99.90
22145;DHT22;11238;48.730;11.566;2022-11-14T06:12:53;3.80;99.90
22145;DHT22;11238;48.730;11.566;2022-11-14T06:15:38;3.60;99.90
22145;DHT22;11238;48.730;11.566;2022-11-14T06:18:23;3.70;99.90
22145;DHT22;11238;48.730;11.566;2022-11-14T06:21:15;3.70;99.90
22145;DHT22;11238;48.730;11.566;2022-11-14T06:24:01;3.80;99.90
22145;DHT22;11238;48.730;11.566;2022-11-14T06:26:45;3.90;99.90
22145;DHT22;11238;48.730;11.566;2022-11-14T06:29:30;3.90;99.90
22145;DHT22;11238;48.730;11.566;2022-11-14T06:32:14;3.80;99.90
22145;DHT22;11238;48.730;11.566;2022-11-14T06:34:59;3.80;99.90
22145;DHT22;11238;48.730;11.566;2022-11-14T06:37:43;3.90;99.90
22145;DHT22;11238;48.730;11.566;2022-11-14T06:40:28;3.80;99.90
22145;DHT22;11238;48.730;11.566;2022-11-14T06:43:12;3.70;99.90
22145;DHT22;11238;48.730;11.566;2022-11-14T06:45:57;3.70;99.90
22145;DHT22;11238;48.730;11.566;2022-11-14T06:48:43;3.60;99.90
22145;DHT22;11238;48.730;11.566;2022-11-14T06:51:28;3.40;99.90
22145;DHT22;11238;48.730;11.566;2022-11-14T06:54:12;3.40;99.90
22145;DHT22;11238;48.730;11.566;2022-11-14T06:56:56;3.40;99.90
22145;DHT22;11238;48.730;11.566;2022-11-14T06:59:41;3.40;99.90
22145;DHT22;11238;48.730;11.566;2022-11-14T07:02:27;3.30;99.90
22145;DHT22;11238;48.730;11.566;2022-11-14T07:05:11;3.30;99.90
22145;DHT22;11238;48.730;11.566;2022-11-14T07:07:56;3.40;99.90
22145;DHT22;11238;48.730;11.566;2022-11-14T07:10:40;3.30;99.90
22145;DHT22;11238;48.730;11.566;2022-11-14T07:13:25;3.30;99.90
22145;DHT22;11238;48.730;11.566;2022-11-14T07:16:10;3.30;99.90
22145;DHT22;11238;48.730;11.566;2022-11-14T07:18:56;3.30;99.90
22145;DHT22;11238;48.730;11.566;2022-11-14T07:21:41;3.30;99.90
22145;DHT22;11238;48.730;11.566;2022-11-14T07:24:25;3.30;99.90
22145;DHT22;11238;48.730;11.566;2022-11-14T07:27:09;3.30;99.90
22145;DHT22;11238;48.730;11.566;2022-11-14T07:29:54;3.40;99.90
22145;DHT22;11238;48.730;11.566;2022-11-14T07:32:39;3.40;99.90
22145;DHT22;11238;48.730;11.566;2022-11-14T07:35:24;3.30;99.90
22145;DHT22;11238;48.730;11.566;2022-11-14T07:38:09;3.40;99.90
22145;DHT22;11238;48.730;11.566;2022-11-14T07:40:56;3.40;99.90
22145;DHT22;11238;48.730;11.566;2022-11-14T07:43:41;3.50;99.90
22145;DHT22;11238;48.730;11.566;2022-11-14T07:46:26;3.50;99.90
22145;DHT22;11238;48.730;11.566;2022-11-14T07:49:11;3.50;99.90
22145;DHT22;11238;48.730;11.566;2022-11-14T07:51:55;3.50;99.90
22145;DHT22;11238;48.730;11.566;2022-11-14T07:54:40;3.60;99.90
22145;DHT22;11238;48.730;11.566;2022-11-14T07:57:24;3.60;99.90
22145;DHT22;11238;48.730;11.566;2022-11-14T08:00:10;3.60;99.90
22145;DHT22;11238;48.730;11.566;2022-11-14T08:02:55;3.60;99.90
22145;DHT22;11238;48.730;11.566;2022-11-14T08:05:39;3.60;99.90
22145;DHT22;11238;48.730;11.566;2022-11-14T08:08:24;3.50;99.90
22145;DHT22;11238;48.730;11.566;2022-11-14T08:11:09;3.50;99.90
22145;DHT22;11238;48.730;11.566;2022-11-14T08:13:54;3.60;99.90
22145;DHT22;11238;48.730;11.566;2022-11-14T08:16:38;3.60;99.90
22145;DHT22;11238;48.730;11.566;2022-11-14T08:19:23;3.50;99.90
22145;DHT22;11238;48.730;11.566;2022-11-14T08:22:07;3.50;99.90
22145;DHT22;11238;48.730;11.566;2022-11-14T08:24:51;3.50;99.90
22145;DHT22;11238;48.730;11.566;2022-11-14T08:27:36;3.50;99.90
22145;DHT22;11238;48.730;11.566;2022-11-14T08:30:20;3.50;99.90
22145;DHT22;11238;48.730;11.566;2022-11-14T08:33:06;3.50;99.90
22145;DHT22;11238;48.730;11.566;2022-11-14T08:35:50;3.50;99.90
22145;DHT22;11238;48.730;11.566;2022-11-14T08:38:35;3.40;99.90
22145;DHT22;11238;48.730;11.566;2022-11-14T08:41:20;3.40;99.90
22145;DHT22;11238;48.730;11.566;2022-11-14T08:44:05;3.50;99.90
22145;DHT22;11238;48.730;11.566;2022-11-14T08:46:51;3.60;99.90
22145;DHT22;11238;48.730;11.566;2022-11-14T08:49:34;3.70;99.90
22145;DHT22;11238;48.730;11.566;2022-11-14T08:52:20;3.70;99.90
22145;DHT22;11238;48.730;11.566;2022-11-14T08:55:05;3.50;99.90
22145;DHT22;11238;48.730;11.566;2022-11-14T08:57:52;3.70;99.90
22145;DHT22;11238;48.730;11.566;2022-11-14T09:00:37;3.70;99.90
22145;DHT22;11238;48.730;11.566;2022-11-14T09:03:22;3.70;99.90
22145;DHT22;11238;48.730;11.566;2022-11-14T09:06:06;3.80;99.90
22145;DHT22;11238;48.730;11.566;2022-11-14T09:08:51;3.80;99.90
22145;DHT22;11238;48.730;11.566;2022-11-14T09:11:35;3.80;99.90
22145;DHT22;11238;48.730;11.566;2022-11-14T09:14:20;3.80;99.90
22145;DHT22;11238;48.730;11.566;2022-11-14T09:17:04;3.90;99.90
22145;DHT22;11238;48.730;11.566;2022-11-14T09:19:49;3.80;99.90
22145;DHT22;11238;48.730;11.566;2022-11-14T09:22:34;3.90;99.90
22145;DHT22;11238;48.730;11.566;2022-11-14T09:25:19;3.90;99.90
22145;DHT22;11238;48.730;11.566;2022-11-14T09:28:06;3.90;99.90
22145;DHT22;11238;48.730;11.566;2022-11-14T09:30:51;3.90;99.90
22145;DHT22;11238;48.730;11.566;2022-11-14T09:33:35;4.00;99.90
22145;DHT22;11238;48.730;11.566;2022-11-14T09:36:20;4.00;99.90
22145;DHT22;11238;48.730;11.566;2022-11-14T09:39:06;4.00;99.90
22145;DHT22;11238;48.730;11.566;2022-11-14T09:42:40;3.90;99.90
22145;DHT22;11238;48.730;11.566;2022-11-14T09:45:18;3.90;99.90
22145;DHT22;11238;48.730;11.566;2022-11-14T09:48:10;4.00;99.90
22145;DHT22;11238;48.730;11.566;2022-11-14T09:51:08;4.00;99.90
22145;DHT22;11238;48.730;11.566;2022-11-14T09:54:06;4.10;99.90
22145;DHT22;11238;48.730;11.566;2022-11-14T09:56:54;4.10;99.90
22145;DHT22;11238;48.730;11.566;2022-11-14T09:59:38;4.00;99.90
22145;DHT22;11238;48.730;11.566;2022-11-14T10:02:36;4.10;99.90
22145;DHT22;11238;48.730;11.566;2022-11-14T10:05:32;4.20;99.90
22145;DHT22;11238;48.730;11.566;2022-11-14T10:11:34;4.00;99.90
22145;DHT22;11238;48.730;11.566;2022-11-14T10:14:35;4.20;99.90
22145;DHT22;11238;48.730;11.566;2022-11-14T10:20:32;4.30;99.90
22145;DHT22;11238;48.730;11.566;2022-11-14T10:26:29;4.60;99.90
22145;DHT22;11238;48.730;11.566;2022-11-14T10:29:38;4.30;99.90
22145;DHT22;11238;48.730;11.566;2022-11-14T10:32:31;4.30;99.90
22145;DHT22;11238;48.730;11.566;2022-11-14T10:35:44;4.50;99.90
22145;DHT22;11238;48.730;11.566;2022-11-14T10:38:49;4.70;99.90
22145;DHT22;11238;48.730;11.566;2022-11-14T10:41:37;4.80;99.90
22145;DHT22;11238;48.730;11.566;2022-11-14T10:44:28;5.00;99.90
22145;DHT22;11238;48.730;11.566;2022-11-14T10:47:17;5.00;99.90
22145;DHT22;11238;48.730;11.566;2022-11-14T10:50:20;5.10;99.90
22145;DHT22;11238;48.730;11.566;2022-11-14T10:53:22;5.10;99.90
22145;DHT22;11238;48.730;11.566;2022-11-14T10:56:12;5.20;99.90
22145;DHT22;11238;48.730;11.566;2022-11-14T10:58:58;5.30;99.90
22145;DHT22;11238;48.730;11.566;2022-11-14T11:04:35;5.80;99.90
22145;DHT22;11238;48.730;11.566;2022-11-14T11:07:21;6.10;99.90
22145;DHT22;11238;48.730;11.566;2022-11-14T11:10:25;6.10;99.90
22145;DHT22;11238;48.730;11.566;2022-11-14T11:13:45;6.20;99.90
22145;DHT22;11238;48.730;11.566;2022-11-14T11:16:31;6.40;99.90
22145;DHT22;11238;48.730;11.566;2022-11-14T11:19:25;6.30;99.90
22145;DHT22;11238;48.730;11.566;2022-11-14T11:22:26;6.20;99.90
22145;DHT22;11238;48.730;11.566;2022-11-14T11:25:28;6.30;99.90
22145;DHT22;11238;48.730;11.566;2022-11-14T11:28:18;6.10;99.90
22145;DHT22;11238;48.730;11.566;2022-11-14T11:31:08;5.80;99.90
22145;DHT22;11238;48.730;11.566;2022-11-14T11:33:53;5.80;99.90
22145;DHT22;11238;48.730;11.566;2022-11-14T11:36:41;5.60;99.90
22145;DHT22;11238;48.730;11.566;2022-11-14T11:39:31;5.50;99.90
22145;DHT22;11238;48.730;11.566;2022-11-14T11:45:40;5.40;99.90
22145;DHT22;11238;48.730;11.566;2022-11-14T11:48:33;5.40;99.90
22145;DHT22;11238;48.730;11.566;2022-11-14T11:51:23;5.30;99.90
22145;DHT22;11238;48.730;11.566;2022-11-14T11:54:17;5.40;99.90
22145;DHT22;11238;48.730;11.566;2022-11-14T11:57:12;5.50;99.90
22145;DHT22;11238;48.730;11.566;2022-11-14T12:00:05;5.60;99.90
22145;DHT22;11238;48.730;11.566;2022-11-14T12:02:51;5.70;99.90
22145;DHT22;11238;48.730;11.566;2022-11-14T12:06:14;6.30;99.90
22145;DHT22;11238;48.730;11.566;2022-11-14T12:12:18;6.80;99.90
22145;DHT22;11238;48.730;11.566;2022-11-14T12:27:41;7.60;99.90
22145;DHT22;11238;48.730;11.566;2022-11-14T12:30:28;8.00;99.90
22145;DHT22;11238;48.730;11.566;2022-11-14T12:33:28;8.00;99.90
22145;DHT22;11238;48.730;11.566;2022-11-14T12:36:14;8.30;99.90
22145;DHT22;11238;48.730;11.566;2022-11-14T12:39:00;8.50;99.90
22145;DHT22;11238;48.730;11.566;2022-11-14T12:41:45;8.80;99.90
22145;DHT22;11238;48.730;11.566;2022-11-14T12:44:32;9.20;99.90
22145;DHT22;11238;48.730;11.566;2022-11-14T12:47:24;9.40;99.90
22145;DHT22;11238;48.730;11.566;2022-11-14T12:50:31;9.30;99.90
22145;DHT22;11238;48.730;11.566;2022-11-14T12:59:31;10.10;99.90
22145;DHT22;11238;48.730;11.566;2022-11-14T13:02:43;9.90;99.90
22145;DHT22;11238;48.730;11.566;2022-11-14T13:11:43;9.90;99.90
22145;DHT22;11238;48.730;11.566;2022-11-14T13:14:49;9.80;99.90
22145;DHT22;11238;48.730;11.566;2022-11-14T13:18:03;9.90;99.90
22145;DHT22;11238;48.730;11.566;2022-11-14T13:21:26;10.10;99.90
22145;DHT22;11238;48.730;11.566;2022-11-14T13:25:34;10.00;99.90
22145;DHT22;11238;48.730;11.566;2022-11-14T13:27:53;10.20;99.90
22145;DHT22;11238;48.730;11.566;2022-11-14T13:31:19;10.00;99.90
22145;DHT22;11238;48.730;11.566;2022-11-14T13:34:35;10.20;99.90
22145;DHT22;11238;48.730;11.566;2022-11-14T13:43:55;9.80;99.90
22145;DHT22;11238;48.730;11.566;2022-11-14T13:50:54;9.50;99.90
22145;DHT22;11238;48.730;11.566;2022-11-14T13:53:41;9.10;99.90
22145;DHT22;11238;48.730;11.566;2022-11-14T14:03:03;9.00;99.90
22145;DHT22;11238;48.730;11.566;2022-11-14T14:06:09;9.00;99.90
22145;DHT22;11238;48.730;11.566;2022-11-14T14:15:43;8.30;99.90
22145;DHT22;11238;48.730;11.566;2022-11-14T14:21:51;8.30;99.90
22145;DHT22;11238;48.730;11.566;2022-11-14T14:25:16;8.30;99.90
22145;DHT22;11238;48.730;11.566;2022-11-14T14:28:24;8.10;99.90
22145;DHT22;11238;48.730;11.566;2022-11-14T14:31:18;8.10;99.90
22145;DHT22;11238;48.730;11.566;2022-11-14T14:34:29;8.20;99.90
22145;DHT22;11238;48.730;11.566;2022-11-14T14:37:22;8.10;99.90
22145;DHT22;11238;48.730;11.566;2022-11-14T14:43:24;8.00;99.90
22145;DHT22;11238;48.730;11.566;2022-11-14T14:46:09;8.00;99.90
22145;DHT22;11238;48.730;11.566;2022-11-14T14:48:54;8.00;99.90
22145;DHT22;11238;48.730;11.566;2022-11-14T14:51:48;8.00;99.90
22145;DHT22;11238;48.730;11.566;2022-11-14T14:54:55;8.00;99.90
22145;DHT22;11238;48.730;11.566;2022-11-14T14:57:40;7.90;99.90
22145;DHT22;11238;48.730;11.566;2022-11-14T15:00:25;7.80;99.90
22145;DHT22;11238;48.730;11.566;2022-11-14T15:03:10;7.80;99.90
22145;DHT22;11238;48.730;11.566;2022-11-14T15:06:02;7.80;99.90
22145;DHT22;11238;48.730;11.566;2022-11-14T15:08:47;7.80;99.90
22145;DHT22;11238;48.730;11.566;2022-11-14T15:11:33;7.70;99.90
22145;DHT22;11238;48.730;11.566;2022-11-14T15:14:23;7.70;99.90
22145;DHT22;11238;48.730;11.566;2022-11-14T15:17:08;7.60;99.90
22145;DHT22;11238;48.730;11.566;2022-11-14T15:19:53;7.60;99.90
22145;DHT22;11238;48.730;11.566;2022-11-14T15:22:38;7.60;99.90
22145;DHT22;11238;48.730;11.566;2022-11-14T15:25:23;7.60;99.90
22145;DHT22;11238;48.730;11.566;2022-11-14T15:28:19;7.60;99.90
22145;DHT22;11238;48.730;11.566;2022-11-14T15:31:05;7.60;99.90
22145;DHT22;11238;48.730;11.566;2022-11-14T15:34:01;7.50;99.90
22145;DHT22;11238;48.730;11.566;2022-11-14T15:39:52;7.50;99.90
22145;DHT22;11238;48.730;11.566;2022-11-14T15:42:37;7.40;99.90
22145;DHT22;11238;48.730;11.566;2022-11-14T15:45:39;7.40;99.90
22145;DHT22;11238;48.730;11.566;2022-11-14T15:48:23;7.40;99.90
22145;DHT22;11238;48.730;11.566;2022-11-14T15:51:08;7.40;99.90
22145;DHT22;11238;48.730;11.566;2022-11-14T15:53:52;7.40;99.90
22145;DHT22;11238;48.730;11.566;2022-11-14T15:56:37;7.40;99.90
22145;DHT22;11238;48.730;11.566;2022-11-14T15:59:22;7.30;99.90
22145;DHT22;11238;48.730;11.566;2022-11-14T16:05:03;7.20;99.90
22145;DHT22;11238;48.730;11.566;2022-11-14T16:07:48;7.20;99.90
22145;DHT22;11238;48.730;11.566;2022-11-14T16:10:32;7.20;99.90
22145;DHT22;11238;48.730;11.566;2022-11-14T16:13:16;7.20;99.90
22145;DHT22;11238;48.730;11.566;2022-11-14T16:16:01;7.20;99.90
22145;DHT22;11238;48.730;11.566;2022-11-14T16:18:45;7.10;99.90
22145;DHT22;11238;48.730;11.566;2022-11-14T16:21:30;7.10;99.90
22145;DHT22;11238;48.730;11.566;2022-11-14T16:24:17;7.10;99.90
22145;DHT22;11238;48.730;11.566;2022-11-14T16:27:03;7.00;99.90
22145;DHT22;11238;48.730;11.566;2022-11-14T16:29:47;7.00;99.90
22145;DHT22;11238;48.730;11.566;2022-11-14T16:32:32;7.00;99.90
22145;DHT22;11238;48.730;11.566;2022-11-14T16:35:18;6.90;99.90
22145;DHT22;11238;48.730;11.566;2022-11-14T16:38:03;6.90;99.90
22145;DHT22;11238;48.730;11.566;2022-11-14T16:40:48;6.90;99.90
22145;DHT22;11238;48.730;11.566;2022-11-14T16:43:32;6.80;99.90
22145;DHT22;11238;48.730;11.566;2022-11-14T16:46:16;6.70;99.90
22145;DHT22;11238;48.730;11.566;2022-11-14T16:49:01;6.70;99.90
22145;DHT22;11238;48.730;11.566;2022-11-14T16:51:47;6.70;99.90
22145;DHT22;11238;48.730;11.566;2022-11-14T16:54:33;6.50;99.90
22145;DHT22;11238;48.730;11.566;2022-11-14T16:57:17;6.40;99.90
22145;DHT22;11238;48.730;11.566;2022-11-14T17:00:04;6.40;99.90
22145;DHT22;11238;48.730;11.566;2022-11-14T17:02:49;6.30;99.90
22145;DHT22;11238;48.730;11.566;2022-11-14T17:05:40;6.30;99.90
22145;DHT22;11238;48.730;11.566;2022-11-14T17:08:25;6.30;99.90
22145;DHT22;11238;48.730;11.566;2022-11-14T17:11:09;6.30;99.90
22145;DHT22;11238;48.730;11.566;2022-11-14T17:13:55;6.20;99.90
22145;DHT22;11238;48.730;11.566;2022-11-14T17:16:40;6.20;99.90
22145;DHT22;11238;48.730;11.566;2022-11-14T17:19:24;6.20;99.90
22145;DHT22;11238;48.730;11.566;2022-11-14T17:22:09;6.20;99.90
22145;DHT22;11238;48.730;11.566;2022-11-14T17:24:53;6.10;99.90
22145;DHT22;11238;48.730;11.566;2022-11-14T17:27:37;6.00;99.90
22145;DHT22;11238;48.730;11.566;2022-11-14T17:30:22;6.00;99.90
22145;DHT22;11238;48.730;11.566;2022-11-14T17:33:06;6.00;99.90
22145;DHT22;11238;48.730;11.566;2022-11-14T17:35:50;5.90;99.90
22145;DHT22;11238;48.730;11.566;2022-11-14T17:38:36;5.90;99.90
22145;DHT22;11238;48.730;11.566;2022-11-14T17:41:20;5.90;99.90
22145;DHT22;11238;48.730;11.566;2022-11-14T17:44:04;5.80;99.90
22145;DHT22;11238;48.730;11.566;2022-11-14T17:46:49;5.80;99.90
22145;DHT22;11238;48.730;11.566;2022-11-14T17:49:33;5.80;99.90
22145;DHT22;11238;48.730;11.566;2022-11-14T17:52:18;5.70;99.90
22145;DHT22;11238;48.730;11.566;2022-11-14T17:55:02;5.70;99.90
22145;DHT22;11238;48.730;11.566;2022-11-14T17:57:47;5.60;99.90
22145;DHT22;11238;48.730;11.566;2022-11-14T18:00:34;5.40;99.90
22145;DHT22;11238;48.730;11.566;2022-11-14T18:03:19;5.10;99.90
22145;DHT22;11238;48.730;11.566;2022-11-14T18:06:22;5.20;99.90
22145;DHT22;11238;48.730;11.566;2022-11-14T18:09:08;5.20;99.90
22145;DHT22;11238;48.730;11.566;2022-11-14T18:11:53;5.20;99.90
22145;DHT22;11238;48.730;11.566;2022-11-14T18:14:37;5.30;99.90
22145;DHT22;11238;48.730;11.566;2022-11-14T18:17:21;5.20;99.90
22145;DHT22;11238;48.730;11.566;2022-11-14T18:20:07;5.30;99.90
22145;DHT22;11238;48.730;11.566;2022-11-14T18:22:52;5.20;99.90
22145;DHT22;11238;48.730;11.566;2022-11-14T18:25:36;5.10;99.90
22145;DHT22;11238;48.730;11.566;2022-11-14T18:28:20;5.10;99.90
22145;DHT22;11238;48.730;11.566;2022-11-14T18:31:06;5.10;99.90
22145;DHT22;11238;48.730;11.566;2022-11-14T18:33:53;5.10;99.90
22145;DHT22;11238;48.730;11.566;2022-11-14T18:36:38;5.00;99.90
22145;DHT22;11238;48.730;11.566;2022-11-14T18:39:22;5.00;99.90
22145;DHT22;11238;48.730;11.566;2022-11-14T18:42:09;4.90;99.90
22145;DHT22;11238;48.730;11.566;2022-11-14T18:44:53;5.00;99.90
22145;DHT22;11238;48.730;11.566;2022-11-14T18:47:37;4.90;99.90
22145;DHT22;11238;48.730;11.566;2022-11-14T18:50:21;4.90;99.90
22145;DHT22;11238;48.730;11.566;2022-11-14T18:53:07;4.80;99.90
22145;DHT22;11238;48.730;11.566;2022-11-14T18:55:52;4.70;99.90
22145;DHT22;11238;48.730;11.566;2022-11-14T18:58:36;4.70;99.90
22145;DHT22;11238;48.730;11.566;2022-11-14T19:01:24;4.70;99.90
22145;DHT22;11238;48.730;11.566;2022-11-14T19:04:10;4.70;99.90